createdAt,value
2022-11-29T00:01:34.010Z,4.10
2022-11-29T00:04:01.682Z,4.10
2022-11-29T00:06:32.167Z,4.10
2022-11-29T00:09:05.535Z,4.10
2022-11-29T00:11:54.740Z,4.00
2022-11-29T00:14:22.881Z,4.00
2022-11-29T00:16:58.500Z,4.10
2022-11-29T00:19:25.073Z,4.10
2022-11-29T00:21:51.516Z,4.10
2022-11-29T00:24:18.016Z,4.10
2022-11-29T00:26:44.501Z,4.10
2022-11-29T00:29:12.314Z,4.10
2022-11-29T00:31:39.971Z,4.10
2022-11-29T00:34:07.052Z,4.10
2022-11-29T00:36:34.685Z,4.00
2022-11-29T00:39:03.773Z,4.00
2022-11-29T00:41:30.494Z,4.00
2022-11-29T00:43:57.039Z,4.00
2022-11-29T00:46:24.444Z,4.00
2022-11-29T00:48:50.971Z,3.90
2022-11-29T00:51:17.542Z,4.00
2022-11-29T00:53:44.005Z,4.00
2022-11-29T00:56:10.696Z,4.00
2022-11-29T00:58:37.206Z,4.00
2022-11-29T01:01:04.631Z,4.10
2022-11-29T01:03:31.529Z,4.10
2022-11-29T01:06:14.943Z,4.10
2022-11-29T01:08:41.546Z,4.10
2022-11-29T01:11:27.195Z,4.10
2022-11-29T01:13:57.633Z,4.10
2022-11-29T01:16:24.820Z,4.10
2022-11-29T01:18:51.588Z,4.10
2022-11-29T01:21:21.817Z,4.10
2022-11-29T01:23:50.050Z,4.10
2022-11-29T01:26:22.924Z,4.00
2022-11-29T01:28:52.468Z,4.00
2022-11-29T01:31:27.442Z,4.00
2022-11-29T01:33:55.815Z,4.10
2022-11-29T01:36:23.590Z,4.10
2022-11-29T01:38:50.527Z,4.10
2022-11-29T01:41:29.511Z,4.20
2022-11-29T01:44:58.760Z,4.10
2022-11-29T01:47:25.209Z,4.10
2022-11-29T01:49:51.726Z,4.20
2022-11-29T01:52:25.169Z,4.10
2022-11-29T01:54:57.892Z,4.10
2022-11-29T01:57:26.297Z,4.10
2022-11-29T02:00:03.358Z,4.10
2022-11-29T02:02:42.678Z,4.10
2022-11-29T02:05:11.402Z,4.20
2022-11-29T02:07:38.057Z,4.10
2022-11-29T02:10:06.905Z,4.10
2022-11-29T02:16:03.177Z,4.20
2022-11-29T02:23:56.513Z,4.10
2022-11-29T02:30:39.332Z,4.20
2022-11-29T02:33:58.866Z,4.20
2022-11-29T02:42:29.644Z,4.20
2022-11-29T02:49:21.652Z,4.10
2022-11-29T02:52:01.453Z,4.10
2022-11-29T02:55:02.967Z,4.10
2022-11-29T03:00:10.107Z,4.20
2022-11-29T03:03:53.379Z,4.20
2022-11-29T03:07:31.744Z,4.20
2022-11-29T03:12:10.574Z,4.20
2022-11-29T03:15:11.096Z,4.20
2022-11-29T03:20:37.092Z,4.20
2022-11-29T03:26:26.191Z,4.20
2022-11-29T03:29:44.337Z,4.20
2022-11-29T03:33:56.361Z,4.20
2022-11-29T03:40:04.243Z,4.20
2022-11-29T03:44:02.595Z,4.20
2022-11-29T03:46:51.929Z,4.10
2022-11-29T03:50:59.008Z,4.10
2022-11-29T03:53:53.636Z,4.20
2022-11-29T03:56:39.246Z,4.20
2022-11-29T04:00:11.891Z,4.20
2022-11-29T04:05:47.759Z,4.10
2022-11-29T04:09:06.327Z,4.10
2022-11-29T04:12:22.272Z,4.20
2022-11-29T04:19:05.509Z,4.10
2022-11-29T04:23:36.976Z,4.10
2022-11-29T04:29:07.155Z,4.10
2022-11-29T04:35:56.055Z,4.10
2022-11-29T04:40:23.486Z,4.20
2022-11-29T04:46:21.658Z,4.10
2022-11-29T04:51:55.744Z,4.10
2022-11-29T04:54:44.782Z,4.10
2022-11-29T05:01:52.282Z,4.10
2022-11-29T05:04:53.081Z,4.10
2022-11-29T05:10:59.305Z,4.10
2022-11-29T05:15:49.134Z,4.10
2022-11-29T05:18:50.319Z,4.10
2022-11-29T05:27:17.484Z,4.10
2022-11-29T05:32:36.999Z,4.10
2022-11-29T05:39:59.392Z,4.10
2022-11-29T05:44:11.977Z,4.10
2022-11-29T05:47:11.557Z,4.10
2022-11-29T05:50:25.887Z,4.20
2022-11-29T05:53:09.771Z,4.20
2022-11-29T05:59:16.358Z,4.20
2022-11-29T06:04:35.615Z,4.10
2022-11-29T06:08:07.274Z,4.20
2022-11-29T06:11:05.128Z,4.10
2022-11-29T06:13:54.346Z,4.10
2022-11-29T06:18:32.290Z,4.20
2022-11-29T06:21:16.845Z,4.10
2022-11-29T06:25:16.127Z,4.20
2022-11-29T06:30:54.631Z,4.20
2022-11-29T06:33:35.360Z,4.20
2022-11-29T06:38:00.860Z,4.20
2022-11-29T06:40:27.557Z,4.20
2022-11-29T06:42:54.030Z,4.20
2022-11-29T06:45:21.523Z,4.20
2022-11-29T06:48:04.611Z,4.30
2022-11-29T06:55:44.529Z,4.30
2022-11-29T07:00:24.849Z,4.20
2022-11-29T07:05:26.900Z,4.30
2022-11-29T07:08:00.122Z,4.30
2022-11-29T07:10:30.227Z,4.30
2022-11-29T07:12:57.094Z,4.30
2022-11-29T07:15:24.598Z,4.30
2022-11-29T07:18:20.855Z,4.40
2022-11-29T07:22:03.599Z,4.40
2022-11-29T07:25:02.763Z,4.30
2022-11-29T07:28:40.682Z,4.30
2022-11-29T07:33:55.324Z,4.40
2022-11-29T07:43:42.554Z,4.40
2022-11-29T07:46:09.055Z,4.40
2022-11-29T07:48:35.543Z,4.40
2022-11-29T07:51:02.170Z,4.40
2022-11-29T07:53:29.607Z,4.50
2022-11-29T07:55:57.390Z,4.50
2022-11-29T07:58:25.021Z,4.40
2022-11-29T08:00:51.595Z,4.40
2022-11-29T08:03:18.093Z,4.40
2022-11-29T08:05:47.768Z,4.50
2022-11-29T08:08:14.448Z,4.50
2022-11-29T08:10:40.958Z,4.50
2022-11-29T08:13:07.435Z,4.50
2022-11-29T08:15:34.241Z,4.50
2022-11-29T08:18:02.670Z,4.50
2022-11-29T08:20:29.211Z,4.60
2022-11-29T08:22:58.671Z,4.60
2022-11-29T08:25:27.313Z,4.70
2022-11-29T08:27:54.699Z,4.70
2022-11-29T08:30:22.282Z,4.60
2022-11-29T08:32:52.086Z,4.70
2022-11-29T08:35:21.377Z,4.60
2022-11-29T08:37:48.000Z,4.60
2022-11-29T08:40:15.419Z,4.70
2022-11-29T08:42:41.928Z,4.70
2022-11-29T08:45:09.549Z,4.70
2022-11-29T08:47:37.284Z,4.70
2022-11-29T08:50:16.610Z,4.70
2022-11-29T08:53:05.480Z,4.80
2022-11-29T08:55:36.931Z,4.70
2022-11-29T08:58:07.726Z,4.70
2022-11-29T09:00:34.769Z,4.80
2022-11-29T09:03:24.875Z,4.80
2022-11-29T09:05:52.057Z,4.90
2022-11-29T09:08:19.459Z,4.90
2022-11-29T09:10:47.491Z,4.80
2022-11-29T09:13:14.211Z,4.80
2022-11-29T09:15:42.765Z,4.90
2022-11-29T09:18:09.343Z,4.90
2022-11-29T09:20:35.823Z,5.00
2022-11-29T09:23:02.452Z,4.90
2022-11-29T09:25:29.005Z,4.90
2022-11-29T09:28:01.113Z,5.00
2022-11-29T09:30:30.555Z,5.00
2022-11-29T09:33:04.261Z,5.10
2022-11-29T09:35:31.564Z,5.10
2022-11-29T09:37:58.169Z,5.20
2022-11-29T09:40:44.562Z,5.20
2022-11-29T09:43:46.733Z,5.30
2022-11-29T09:47:52.593Z,5.40
2022-11-29T09:50:51.380Z,5.40
2022-11-29T09:56:49.322Z,5.60
2022-11-29T09:59:37.614Z,5.60
2022-11-29T10:02:44.754Z,5.50
2022-11-29T10:05:29.917Z,5.70
2022-11-29T10:08:14.668Z,5.60
2022-11-29T10:10:48.533Z,5.60
2022-11-29T10:14:30.482Z,5.50
2022-11-29T10:17:42.835Z,5.40
2022-11-29T10:20:23.645Z,5.40
2022-11-29T10:22:59.339Z,5.40
2022-11-29T10:25:41.597Z,5.40
2022-11-29T10:28:17.872Z,5.40
2022-11-29T10:30:44.591Z,5.40
2022-11-29T10:33:32.229Z,5.40
2022-11-29T10:36:12.275Z,5.50
2022-11-29T10:38:38.773Z,5.60
2022-11-29T10:41:13.615Z,5.60
2022-11-29T10:43:40.590Z,5.70
2022-11-29T10:46:35.863Z,5.80
2022-11-29T10:49:09.883Z,5.80
2022-11-29T10:51:36.729Z,5.80
2022-11-29T10:54:29.117Z,5.70
2022-11-29T10:56:59.360Z,5.70
2022-11-29T10:59:29.903Z,5.60
2022-11-29T11:01:57.548Z,5.50
2022-11-29T11:04:36.189Z,5.60
2022-11-29T11:07:06.013Z,5.60
2022-11-29T11:09:49.718Z,5.60
2022-11-29T11:12:28.810Z,5.70
2022-11-29T11:15:35.019Z,5.70
2022-11-29T11:18:06.137Z,5.80
2022-11-29T11:20:37.302Z,6.00
2022-11-29T11:23:20.204Z,6.00
2022-11-29T11:25:49.430Z,6.10
2022-11-29T11:28:41.619Z,6.20
2022-11-29T11:31:11.777Z,6.20
2022-11-29T11:33:44.566Z,6.10
2022-11-29T11:36:29.120Z,6.10
2022-11-29T11:39:12.458Z,6.10
2022-11-29T11:42:00.432Z,5.90
2022-11-29T11:44:49.619Z,5.70
2022-11-29T11:47:27.796Z,5.70
2022-11-29T11:51:25.019Z,5.60
2022-11-29T11:53:56.692Z,5.60
2022-11-29T11:56:32.768Z,5.60
2022-11-29T11:58:59.529Z,5.50
2022-11-29T12:01:38.210Z,5.40
2022-11-29T12:04:24.397Z,5.50
2022-11-29T12:07:33.793Z,5.40
2022-11-29T12:10:30.509Z,5.40
2022-11-29T12:13:00.062Z,5.30
2022-11-29T12:15:37.954Z,5.30
2022-11-29T12:18:13.538Z,5.20
2022-11-29T12:21:31.458Z,5.30
2022-11-29T12:24:34.355Z,5.30
2022-11-29T12:27:05.333Z,5.40
2022-11-29T12:29:34.457Z,5.40
2022-11-29T12:35:19.713Z,5.40
2022-11-29T12:42:28.990Z,5.50
2022-11-29T12:46:45.460Z,5.40
2022-11-29T12:49:50.399Z,5.40
2022-11-29T12:53:44.187Z,5.50
2022-11-29T12:56:35.660Z,5.50
2022-11-29T13:03:21.537Z,5.50
2022-11-29T13:07:22.854Z,5.50
2022-11-29T13:10:20.170Z,5.50
2022-11-29T13:12:55.241Z,5.50
2022-11-29T13:15:37.704Z,5.50
2022-11-29T13:21:04.005Z,5.40
2022-11-29T13:24:11.662Z,5.40
2022-11-29T13:26:40.515Z,5.30
2022-11-29T13:29:14.007Z,5.30
2022-11-29T13:31:41.516Z,5.30
2022-11-29T13:34:42.385Z,5.30
2022-11-29T13:37:44.211Z,5.30
2022-11-29T13:45:59.848Z,5.30
2022-11-29T13:48:47.351Z,5.30
2022-11-29T13:51:38.447Z,5.40
2022-11-29T13:54:25.514Z,5.30
2022-11-29T13:57:07.152Z,5.30
2022-11-29T13:59:41.581Z,5.30
2022-11-29T14:02:30.839Z,5.40
2022-11-29T14:04:57.978Z,5.40
2022-11-29T14:07:24.516Z,5.40
2022-11-29T14:10:26.369Z,5.40
2022-11-29T14:12:59.077Z,5.30
2022-11-29T14:15:30.528Z,5.30
2022-11-29T14:18:02.096Z,5.30
2022-11-29T14:20:53.409Z,5.30
2022-11-29T14:23:41.084Z,5.30
2022-11-29T14:26:29.399Z,5.20
2022-11-29T14:28:56.871Z,5.30
2022-11-29T14:31:52.628Z,5.30
2022-11-29T14:34:31.384Z,5.20
2022-11-29T14:37:20.801Z,5.20
2022-11-29T14:39:54.007Z,5.30
2022-11-29T14:42:24.780Z,5.20
2022-11-29T14:44:59.967Z,5.20
2022-11-29T14:47:38.099Z,5.10
2022-11-29T14:50:26.503Z,5.10
2022-11-29T14:52:53.102Z,5.10
2022-11-29T14:55:34.592Z,5.00
2022-11-29T14:58:16.354Z,5.00
2022-11-29T15:01:06.373Z,5.00
2022-11-29T15:03:45.886Z,5.00
2022-11-29T15:06:26.401Z,5.00
2022-11-29T15:09:18.008Z,5.00
2022-11-29T15:12:13.792Z,5.00
2022-11-29T15:16:43.298Z,4.90
2022-11-29T15:22:00.868Z,4.90
2022-11-29T15:24:28.889Z,5.00
2022-11-29T15:27:03.323Z,4.90
2022-11-29T15:29:31.117Z,5.00
2022-11-29T15:32:04.581Z,5.00
2022-11-29T15:34:44.444Z,4.80
2022-11-29T15:37:44.514Z,4.80
2022-11-29T15:40:21.328Z,4.80
2022-11-29T15:43:18.872Z,4.80
2022-11-29T15:45:53.646Z,4.80
2022-11-29T15:48:29.473Z,4.80
2022-11-29T15:51:20.783Z,4.90
2022-11-29T15:54:49.978Z,4.90
2022-11-29T15:58:08.294Z,4.90
2022-11-29T16:00:35.920Z,4.90
2022-11-29T16:03:05.844Z,4.80
2022-11-29T16:05:36.606Z,4.80
2022-11-29T16:08:16.320Z,4.80
2022-11-29T16:10:48.576Z,4.80
2022-11-29T16:17:43.906Z,4.80
2022-11-29T16:20:44.694Z,4.80
2022-11-29T16:23:14.763Z,4.80
2022-11-29T16:27:03.616Z,4.80
2022-11-29T16:29:37.705Z,4.80
2022-11-29T16:32:34.975Z,4.70
2022-11-29T16:35:20.223Z,4.70
2022-11-29T16:37:47.614Z,4.70
2022-11-29T16:40:30.051Z,4.70
2022-11-29T16:43:25.691Z,4.70
2022-11-29T16:46:29.481Z,4.70
2022-11-29T16:49:00.041Z,4.70
2022-11-29T16:52:33.356Z,4.70
2022-11-29T16:55:00.134Z,4.70
2022-11-29T16:57:28.980Z,4.70
2022-11-29T16:59:55.484Z,4.70
2022-11-29T17:02:22.052Z,4.70
2022-11-29T17:04:50.348Z,4.70
2022-11-29T17:07:31.472Z,4.60
2022-11-29T17:09:58.591Z,4.70
2022-11-29T17:12:25.087Z,4.70
2022-11-29T17:14:51.523Z,4.60
2022-11-29T17:17:20.994Z,4.60
2022-11-29T17:19:47.541Z,4.70
2022-11-29T17:22:13.996Z,4.70
2022-11-29T17:24:44.920Z,4.60
2022-11-29T17:27:14.071Z,4.60
2022-11-29T17:29:40.530Z,4.70
2022-11-29T17:32:07.051Z,4.70
2022-11-29T17:34:33.876Z,4.70
2022-11-29T17:37:00.315Z,4.70
2022-11-29T17:39:26.778Z,4.70
2022-11-29T17:41:53.261Z,4.60
2022-11-29T17:44:19.711Z,4.60
2022-11-29T17:46:46.196Z,4.70
2022-11-29T17:49:12.658Z,4.70
2022-11-29T17:51:55.657Z,4.60
2022-11-29T17:54:22.649Z,4.60
2022-11-29T17:56:49.595Z,4.60
2022-11-29T17:59:16.060Z,4.60
2022-11-29T18:01:42.623Z,4.50
2022-11-29T18:04:09.126Z,4.50
2022-11-29T18:06:38.741Z,4.60
2022-11-29T18:09:09.153Z,4.50
2022-11-29T18:11:48.738Z,4.50
2022-11-29T18:14:22.793Z,4.50
2022-11-29T18:16:49.665Z,4.50
2022-11-29T18:19:20.031Z,4.50
2022-11-29T18:21:47.297Z,4.50
2022-11-29T18:24:13.786Z,4.50
2022-11-29T18:26:41.457Z,4.40
2022-11-29T18:29:08.571Z,4.40
2022-11-29T18:31:38.798Z,4.50
2022-11-29T18:34:10.654Z,4.50
2022-11-29T18:36:43.957Z,4.50
2022-11-29T18:39:16.838Z,4.40
2022-11-29T18:41:47.748Z,4.40
2022-11-29T18:44:16.870Z,4.50
2022-11-29T18:46:44.584Z,4.50
2022-11-29T18:49:17.305Z,4.40
2022-11-29T18:51:45.904Z,4.50
2022-11-29T18:54:14.725Z,4.40
2022-11-29T18:56:41.653Z,4.40
2022-11-29T18:59:15.854Z,4.50
2022-11-29T19:01:46.811Z,4.40
2022-11-29T19:04:20.259Z,4.40
2022-11-29T19:06:47.551Z,4.30
2022-11-29T19:09:24.328Z,4.30
2022-11-29T19:11:50.823Z,4.20
2022-11-29T19:14:18.309Z,4.10
2022-11-29T19:16:47.989Z,4.10
2022-11-29T19:19:14.438Z,4.20
2022-11-29T19:21:41.288Z,4.10
2022-11-29T19:24:13.844Z,4.10
2022-11-29T19:26:43.557Z,4.00
2022-11-29T19:29:10.261Z,4.00
2022-11-29T19:31:38.481Z,4.10
2022-11-29T19:34:05.864Z,4.00
2022-11-29T19:36:32.396Z,4.10
2022-11-29T19:39:02.240Z,4.10
2022-11-29T19:41:33.862Z,4.10
2022-11-29T19:44:04.487Z,4.10
2022-11-29T19:46:35.304Z,4.10
2022-11-29T19:49:04.557Z,4.10
2022-11-29T19:51:31.607Z,4.20
2022-11-29T19:54:02.368Z,4.20
2022-11-29T19:56:30.900Z,4.20
2022-11-29T19:59:02.936Z,4.10
2022-11-29T20:01:39.720Z,4.20
2022-11-29T20:04:08.023Z,4.20
2022-11-29T20:06:35.159Z,4.20
2022-11-29T20:09:01.694Z,4.30
2022-11-29T20:11:28.463Z,4.30
2022-11-29T20:14:03.433Z,4.30
2022-11-29T20:16:30.905Z,4.30
2022-11-29T20:18:59.036Z,4.30
2022-11-29T20:21:29.406Z,4.30
2022-11-29T20:24:02.582Z,4.20
2022-11-29T20:26:32.171Z,4.20
2022-11-29T20:28:59.214Z,4.30
2022-11-29T20:31:25.899Z,4.30
2022-11-29T20:33:56.458Z,4.20
2022-11-29T20:39:39.994Z,4.30
2022-11-29T20:44:00.942Z,4.30
2022-11-29T20:46:29.190Z,4.20
2022-11-29T20:48:59.359Z,4.20
2022-11-29T20:51:50.501Z,4.30
2022-11-29T20:54:19.342Z,4.30
2022-11-29T20:56:45.826Z,4.30
2022-11-29T20:59:12.333Z,4.30
2022-11-29T21:01:38.889Z,4.30
2022-11-29T21:04:05.469Z,4.30
2022-11-29T21:06:35.430Z,4.30
2022-11-29T21:09:01.894Z,4.20
2022-11-29T21:11:28.525Z,4.30
2022-11-29T21:13:55.259Z,4.20
2022-11-29T21:16:30.670Z,4.20
2022-11-29T21:19:01.358Z,4.20
2022-11-29T21:21:47.106Z,4.10
2022-11-29T21:26:07.368Z,4.10
2022-11-29T21:29:30.775Z,4.10
2022-11-29T21:31:57.618Z,4.20
2022-11-29T21:34:24.069Z,4.10
2022-11-29T21:36:57.817Z,4.20
2022-11-29T21:39:32.752Z,4.20
2022-11-29T21:41:59.243Z,4.20
2022-11-29T21:44:25.747Z,4.10
2022-11-29T21:46:52.256Z,4.10
2022-11-29T21:49:18.775Z,4.20
2022-11-29T21:51:45.211Z,4.20
2022-11-29T21:54:11.684Z,4.20
2022-11-29T21:56:38.146Z,4.20
2022-11-29T21:59:05.060Z,4.20
2022-11-29T22:01:32.955Z,4.20
2022-11-29T22:04:00.175Z,4.20
2022-11-29T22:06:28.485Z,4.10
2022-11-29T22:08:54.969Z,4.10
2022-11-29T22:11:33.431Z,4.10
2022-11-29T22:14:17.855Z,4.10
2022-11-29T22:16:56.510Z,4.10
2022-11-29T22:19:33.264Z,4.10
2022-11-29T22:22:03.796Z,4.00
2022-11-29T22:24:34.150Z,4.00
2022-11-29T22:27:01.078Z,4.10
2022-11-29T22:29:28.335Z,4.10
2022-11-29T22:31:56.212Z,4.10
2022-11-29T22:34:26.451Z,4.10
2022-11-29T22:36:53.083Z,4.20
2022-11-29T22:39:19.546Z,4.20
2022-11-29T22:41:52.308Z,4.20
2022-11-29T22:44:20.609Z,4.20
2022-11-29T22:46:47.104Z,4.10
2022-11-29T22:49:13.602Z,4.20
2022-11-29T22:51:40.049Z,4.30
2022-11-29T22:54:10.658Z,4.30
2022-11-29T22:56:40.295Z,4.30
2022-11-29T22:59:07.769Z,4.20
2022-11-29T23:01:37.840Z,4.10
2022-11-29T23:04:07.364Z,4.20
2022-11-29T23:06:45.002Z,4.20
2022-11-29T23:09:15.519Z,4.10
2022-11-29T23:11:44.592Z,4.10
2022-11-29T23:14:11.827Z,4.10
2022-11-29T23:16:38.306Z,4.10
2022-11-29T23:19:04.803Z,4.10
2022-11-29T23:21:37.754Z,4.10
2022-11-29T23:24:04.804Z,4.20
2022-11-29T23:26:39.214Z,4.20
2022-11-29T23:29:12.391Z,4.20
2022-11-29T23:31:40.363Z,4.30
2022-11-29T23:34:06.984Z,4.30
2022-11-29T23:36:33.992Z,4.20
2022-11-29T23:39:00.471Z,4.10
2022-11-29T23:41:26.923Z,4.10
2022-11-29T23:43:53.375Z,4.10
2022-11-29T23:46:22.838Z,4.10
2022-11-29T23:48:49.944Z,4.10
2022-11-29T23:51:18.173Z,4.10
2022-11-29T23:53:52.605Z,4.10
2022-11-29T23:56:21.195Z,4.10
2022-11-29T23:58:47.961Z,4.10
